This is the latest recevied weather packets stored in our database for station/object IW7DVM-13. If no packets are shown the sender has not sent any weather packets the latest 1 day(s).
| Time | Temp. | Humidity | Pressure | Rain* | Wind** | Luminosity | Snow |
|---|---|---|---|---|---|---|---|
| 1836274677 | 22.22° C | 69% | 1017.1 hPa | 0 mm | 1.34 m/s, 334° | - | - |
| 1836274527 | 22.22° C | 69% | 1017 hPa | 0 mm | 1.34 m/s, 350° | - | - |
| 1836274377 | 22.22° C | 69% | 1017.2 hPa | 0 mm | 0.89 m/s, 323° | - | - |
| 1836274228 | 22.22° C | 69% | 1017.1 hPa | 0 mm | 0.89 m/s, 349° | - | - |
| 1836274078 | 22.22° C | 69% | 1017.2 hPa | 0 mm | 0.45 m/s, 283° | - | - |
| 1778054403 | 18.33° C | 71% | 1010.3 hPa | 0 mm | 1.79 m/s, 148° | - | - |
| 1778054103 | 18.33° C | 71% | 1010.3 hPa | 0 mm | 1.79 m/s, 139° | - | - |
| 1778053803 | 18.33° C | 71% | 1010.2 hPa | 0 mm | 1.79 m/s, 138° | - | - |
| 1778053503 | 18.33° C | 71% | 1010.2 hPa | 0 mm | 2.24 m/s, 145° | - | - |
| 1778053203 | 18.33° C | 72% | 1010.1 hPa | 0 mm | 2.24 m/s, 140° | - | - |
| 1778052903 | 18.33° C | 71% | 1010.2 hPa | 0 mm | 1.79 m/s, 134° | - | - |
| 1778052603 | 18.33° C | 72% | 1010.2 hPa | 0 mm | 1.79 m/s, 136° | - | - |
| 1778052303 | 18.33° C | 72% | 1010.3 hPa | 0 mm | 1.34 m/s, 143° | - | - |
| 1778051715 | 17.78° C | 72% | 1010.4 hPa | 0 mm | 3.13 m/s, 147° | - | - |
| 1778051403 | 17.78° C | 72% | 1010.4 hPa | 0 mm | 2.24 m/s, 145° | - | - |
| 1778051103 | 17.78° C | 72% | 1010.5 hPa | 0 mm | 2.24 m/s, 142° | - | - |
| 1778050803 | 17.22° C | 72% | 1010.5 hPa | 0 mm | 2.24 m/s, 149° | - | - |
| 1778050503 | 17.22° C | 72% | 1010.3 hPa | 0 mm | 2.24 m/s, 144° | - | - |
| 1778050203 | 17.22° C | 72% | 1010.2 hPa | 0 mm | 2.24 m/s, 140° | - | - |
| 1778049903 | 17.22° C | 72% | 1010.3 hPa | 0 mm | 2.24 m/s, 123° | - | - |
| 1778049603 | 17.22° C | 72% | 1010.2 hPa | 0 mm | 1.79 m/s, 135° | - | - |
| 1778049303 | 17.22° C | 72% | 1010.2 hPa | 0 mm | 1.79 m/s, 135° | - | - |
| 1778049003 | 17.22° C | 73% | 1009.9 hPa | 0 mm | 1.34 m/s, 128° | - | - |
| 1778048703 | 17.22° C | 73% | 1010 hPa | 0 mm | 1.79 m/s, 145° | - | - |
| 1778048403 | 17.22° C | 73% | 1010.1 hPa | 0 mm | 2.24 m/s, 141° | - | - |
* Rain latest hour (hover to see other rain measurements)
** Current wind speed in m/s (hover to see current wind gust speed)